Burnham, New Mexico
Current Conditions -  °F | °C
As of 8:53 PM on Wednesday 26 Nov 2014 (Local Time) from KFMN Reporting Station
Clear Clear  
Wind Chill: 40°   Ceiling: Unl
Heat Index: 40°   Visibility: 10mi
Dew Point: 20°   Wind: 0mph
Humidity: 45%   Direction: NA
Pressure: 30.4"   Gusts: NA
Location:  36.3443°N, 108.144°W
Report Text: KFMN 270353Z 00000KT 10SM CLR 04/M07 A3040 RMK AO2 SLP303 T00441067
Loading
Personal Weather Stations






























Interactive Weather Map New forecast layout! Learn more

10-Day Weather Forecast

Advertisements
Track Severe Weather on mobile